createdAt,value
2023-02-06T00:00:42.422Z,-1.39
2023-02-06T00:03:15.506Z,-1.35
2023-02-06T00:06:00.043Z,-1.36
2023-02-06T00:08:34.818Z,-1.38
2023-02-06T00:11:10.347Z,-1.38
2023-02-06T00:13:44.674Z,-1.40
2023-02-06T00:16:24.057Z,-1.42
2023-02-06T00:18:59.430Z,-1.42
2023-02-06T00:21:33.007Z,-1.40
2023-02-06T00:24:07.212Z,-1.40
2023-02-06T00:26:41.078Z,-1.41
2023-02-06T00:29:13.982Z,-1.43
2023-02-06T00:31:47.002Z,-1.44
2023-02-06T00:34:20.099Z,-1.45
2023-02-06T00:36:54.177Z,-1.44
2023-02-06T00:39:28.400Z,-1.44
2023-02-06T00:42:01.246Z,-1.43
2023-02-06T00:44:34.063Z,-1.46
2023-02-06T00:47:07.060Z,-1.47
2023-02-06T00:49:40.174Z,-1.47
2023-02-06T00:52:13.049Z,-1.49
2023-02-06T00:54:46.537Z,-1.52
2023-02-06T00:57:19.499Z,-1.55
2023-02-06T00:59:54.625Z,-1.60
2023-02-06T01:02:27.644Z,-1.61
2023-02-06T01:05:00.900Z,-1.63
2023-02-06T01:07:37.004Z,-1.64
2023-02-06T01:10:11.358Z,-1.65
2023-02-06T01:12:44.893Z,-1.61
2023-02-06T01:15:18.363Z,-1.61
2023-02-06T01:17:51.657Z,-1.60
2023-02-06T01:20:24.985Z,-1.58
2023-02-06T01:22:57.980Z,-1.59
2023-02-06T01:25:31.279Z,-1.64
2023-02-06T01:28:05.230Z,-1.64
2023-02-06T01:30:38.753Z,-1.67
2023-02-06T01:33:12.620Z,-1.70
2023-02-06T01:35:45.507Z,-1.74
2023-02-06T01:38:18.845Z,-1.81
2023-02-06T01:40:52.080Z,-1.81
2023-02-06T01:43:25.145Z,-1.84
2023-02-06T01:45:58.546Z,-1.84
2023-02-06T01:48:38.472Z,-1.84
2023-02-06T01:51:18.472Z,-1.82
2023-02-06T01:53:55.584Z,-1.81
2023-02-06T01:56:31.546Z,-1.80
2023-02-06T01:59:05.749Z,-1.80
2023-02-06T02:01:38.964Z,-1.80
2023-02-06T02:04:16.453Z,-1.82
2023-02-06T02:07:06.363Z,-1.83
2023-02-06T02:09:39.433Z,-1.83
2023-02-06T02:12:13.180Z,-1.86
2023-02-06T02:14:49.629Z,-1.84
2023-02-06T02:17:41.772Z,-1.83
2023-02-06T02:20:53.000Z,-1.83
2023-02-06T02:23:42.440Z,-1.84
2023-02-06T02:26:32.585Z,-1.87
2023-02-06T02:29:12.879Z,-1.90
2023-02-06T02:32:02.558Z,-1.94
2023-02-06T02:35:10.668Z,-1.99
2023-02-06T02:38:03.399Z,-2.02
2023-02-06T02:41:06.205Z,-2.04
2023-02-06T02:44:01.013Z,-2.05
2023-02-06T02:46:44.086Z,-2.06
2023-02-06T02:49:23.380Z,-2.07
2023-02-06T02:51:57.207Z,-2.10
2023-02-06T02:54:30.189Z,-2.12
2023-02-06T02:57:15.414Z,-2.12
2023-02-06T02:59:49.733Z,-2.13
2023-02-06T03:02:29.968Z,-2.12
2023-02-06T03:05:09.592Z,-2.12
2023-02-06T03:08:03.900Z,-2.12
2023-02-06T03:10:44.121Z,-2.12
2023-02-06T03:13:39.082Z,-2.12
2023-02-06T03:16:49.054Z,-2.11
2023-02-06T03:19:26.160Z,-2.17
2023-02-06T03:21:59.654Z,-2.20
2023-02-06T03:24:35.934Z,-2.21
2023-02-06T03:27:12.873Z,-2.25
2023-02-06T03:29:46.352Z,-2.28
2023-02-06T03:32:37.911Z,-2.28
2023-02-06T03:35:22.170Z,-2.29
2023-02-06T03:37:55.438Z,-2.29
2023-02-06T03:40:30.617Z,-2.34
2023-02-06T03:43:05.779Z,-2.33
2023-02-06T03:45:42.413Z,-2.33
2023-02-06T03:48:22.663Z,-2.35
2023-02-06T03:50:57.132Z,-2.37
2023-02-06T03:53:31.174Z,-2.37
2023-02-06T03:56:08.756Z,-2.36
2023-02-06T03:58:42.280Z,-2.35
2023-02-06T04:01:16.182Z,-2.37
2023-02-06T04:03:49.690Z,-2.36
2023-02-06T04:06:22.822Z,-2.38
2023-02-06T04:08:55.829Z,-2.41
2023-02-06T04:11:28.829Z,-2.43
2023-02-06T04:14:02.566Z,-2.45
2023-02-06T04:16:36.127Z,-2.47
2023-02-06T04:19:08.953Z,-2.46
2023-02-06T04:21:41.719Z,-2.48
2023-02-06T04:24:15.093Z,-2.48
2023-02-06T04:26:48.012Z,-2.49
2023-02-06T04:29:21.050Z,-2.50
2023-02-06T04:31:53.788Z,-2.49
2023-02-06T04:34:26.630Z,-2.52
2023-02-06T04:36:59.690Z,-2.50
2023-02-06T04:39:32.758Z,-2.50
2023-02-06T04:42:05.959Z,-2.50
2023-02-06T04:44:39.165Z,-2.50
2023-02-06T04:47:12.220Z,-2.50
2023-02-06T04:49:44.950Z,-2.49
2023-02-06T04:52:17.868Z,-2.49
2023-02-06T04:54:51.111Z,-2.51
2023-02-06T04:57:24.562Z,-2.52
2023-02-06T04:59:57.455Z,-2.55
2023-02-06T05:02:30.304Z,-2.57
2023-02-06T05:05:03.279Z,-2.62
2023-02-06T05:07:37.405Z,-2.62
2023-02-06T05:10:11.708Z,-2.62
2023-02-06T05:12:46.268Z,-2.63
2023-02-06T05:15:19.585Z,-2.64
2023-02-06T05:17:53.097Z,-2.66
2023-02-06T05:20:26.178Z,-2.66
2023-02-06T05:23:00.237Z,-2.67
2023-02-06T05:25:33.561Z,-2.69
2023-02-06T05:28:07.702Z,-2.71
2023-02-06T05:30:41.016Z,-2.70
2023-02-06T05:33:14.116Z,-2.69
2023-02-06T05:35:47.279Z,-2.67
2023-02-06T05:38:20.886Z,-2.64
2023-02-06T05:40:54.126Z,-2.64
2023-02-06T05:43:26.896Z,-2.63
2023-02-06T05:46:00.128Z,-2.63
2023-02-06T05:48:35.156Z,-2.61
2023-02-06T05:51:08.205Z,-2.63
2023-02-06T05:53:41.177Z,-2.64
2023-02-06T05:56:14.117Z,-2.63
2023-02-06T05:58:47.681Z,-2.62
2023-02-06T06:01:20.498Z,-2.61
2023-02-06T06:03:53.407Z,-2.59
2023-02-06T06:06:26.196Z,-2.57
2023-02-06T06:09:01.079Z,-2.57
2023-02-06T06:11:34.265Z,-2.57
2023-02-06T06:14:07.416Z,-2.55
2023-02-06T06:16:42.162Z,-2.57
2023-02-06T06:19:14.091Z,-2.57
2023-02-06T06:21:46.988Z,-2.57
2023-02-06T06:24:20.741Z,-2.52
2023-02-06T06:26:53.533Z,-2.48
2023-02-06T06:29:27.485Z,-2.43
2023-02-06T06:32:00.221Z,-2.41
2023-02-06T06:34:33.176Z,-2.36
2023-02-06T06:37:06.769Z,-2.31
2023-02-06T06:39:39.507Z,-2.26
2023-02-06T06:42:12.308Z,-2.24
2023-02-06T06:44:45.287Z,-2.25
2023-02-06T06:47:18.368Z,-2.26
2023-02-06T06:49:51.303Z,-2.26
2023-02-06T06:52:25.747Z,-2.25
2023-02-06T06:54:59.248Z,-2.27
2023-02-06T06:57:35.481Z,-2.21
2023-02-06T07:00:10.502Z,-2.19
2023-02-06T07:02:43.624Z,-2.15
2023-02-06T07:05:16.545Z,-2.12
2023-02-06T07:07:50.221Z,-2.13
2023-02-06T07:10:23.284Z,-2.12
2023-02-06T07:12:56.962Z,-2.09
2023-02-06T07:15:30.139Z,-2.10
2023-02-06T07:18:03.722Z,-2.11
2023-02-06T07:20:38.322Z,-2.12
2023-02-06T07:23:11.792Z,-2.12
2023-02-06T07:25:44.943Z,-2.08
2023-02-06T07:28:18.074Z,-2.04
2023-02-06T07:30:51.004Z,-1.98
2023-02-06T07:33:24.046Z,-1.91
2023-02-06T07:35:57.114Z,-1.86
2023-02-06T07:38:30.374Z,-1.79
2023-02-06T07:41:04.333Z,-1.77
2023-02-06T07:43:39.711Z,-1.75
2023-02-06T07:46:12.780Z,-1.73
2023-02-06T07:48:45.760Z,-1.71
2023-02-06T07:51:18.628Z,-1.65
2023-02-06T07:53:51.441Z,-1.61
2023-02-06T07:56:25.516Z,-1.56
2023-02-06T07:58:58.394Z,-1.48
2023-02-06T08:01:31.559Z,-1.41
2023-02-06T08:04:04.790Z,-1.36
2023-02-06T08:06:37.704Z,-1.31
2023-02-06T08:09:19.457Z,-1.25
2023-02-06T08:11:55.583Z,-1.20
2023-02-06T08:14:28.993Z,-1.19
2023-02-06T08:17:02.021Z,-1.21
2023-02-06T08:19:34.998Z,-1.25
2023-02-06T08:22:08.086Z,-1.27
2023-02-06T08:24:41.094Z,-1.23
2023-02-06T08:27:14.079Z,-1.14
2023-02-06T08:29:47.704Z,-1.14
2023-02-06T08:32:20.671Z,-1.13
2023-02-06T08:34:53.944Z,-1.11
2023-02-06T08:37:26.684Z,-1.09
2023-02-06T08:39:59.679Z,-1.07
2023-02-06T08:42:33.413Z,-1.08
2023-02-06T08:45:06.627Z,-1.08
2023-02-06T08:47:40.752Z,-1.04
2023-02-06T08:50:13.932Z,-0.99
2023-02-06T08:52:46.796Z,-0.94
2023-02-06T08:55:20.268Z,-0.93
2023-02-06T08:57:55.120Z,-0.91
2023-02-06T09:00:28.220Z,-0.84
2023-02-06T09:03:01.475Z,-0.78
2023-02-06T09:05:34.976Z,-0.68
2023-02-06T09:08:08.149Z,-0.55
2023-02-06T09:10:41.497Z,-0.44
2023-02-06T09:13:14.376Z,-0.39
2023-02-06T09:15:54.939Z,-0.33
2023-02-06T09:18:27.503Z,-0.30
2023-02-06T09:21:11.692Z,-0.20
2023-02-06T09:23:48.308Z,0.03
2023-02-06T09:26:25.171Z,0.03
2023-02-06T09:29:00.683Z,0.11
2023-02-06T09:31:33.824Z,0.14
2023-02-06T09:34:08.673Z,0.08
2023-02-06T09:36:41.477Z,0.03
2023-02-06T09:39:14.332Z,-0.03
2023-02-06T09:41:52.448Z,-0.12
2023-02-06T09:44:44.221Z,-0.15
2023-02-06T09:47:35.359Z,-0.19
2023-02-06T09:50:46.030Z,-0.17
2023-02-06T09:53:30.464Z,-0.22
2023-02-06T09:56:36.064Z,-0.37
2023-02-06T09:59:14.428Z,-0.48
2023-02-06T10:02:23.672Z,-0.65
2023-02-06T10:05:23.269Z,-0.79
2023-02-06T10:08:20.771Z,-0.92
2023-02-06T10:11:02.890Z,-0.96
2023-02-06T10:13:43.883Z,-1.01
2023-02-06T10:16:30.497Z,-1.04
2023-02-06T10:19:25.266Z,-1.08
2023-02-06T10:22:10.193Z,-1.06
2023-02-06T10:24:49.473Z,-1.08
2023-02-06T10:27:22.324Z,-1.10
2023-02-06T10:29:55.424Z,-1.10
2023-02-06T10:32:35.785Z,-1.08
2023-02-06T10:35:25.353Z,-1.09
2023-02-06T10:38:23.793Z,-1.04
2023-02-06T10:41:06.984Z,-1.00
2023-02-06T10:43:53.949Z,-0.97
2023-02-06T10:46:46.429Z,-0.97
2023-02-06T10:49:28.244Z,-0.95
2023-02-06T10:52:05.352Z,-0.92
2023-02-06T10:54:46.630Z,-0.91
2023-02-06T10:57:24.142Z,-0.95
2023-02-06T11:00:02.599Z,-0.98
2023-02-06T11:03:07.261Z,-0.99
2023-02-06T11:05:35.287Z,-0.95
2023-02-06T11:08:22.101Z,-0.94
2023-02-06T11:10:56.297Z,-0.95
2023-02-06T11:13:30.867Z,-0.88
2023-02-06T11:16:10.617Z,-0.88
2023-02-06T11:18:47.672Z,-0.91
2023-02-06T11:21:42.132Z,-0.98
2023-02-06T11:24:17.396Z,-0.97
2023-02-06T11:26:57.830Z,-0.95
2023-02-06T11:29:39.560Z,-1.01
2023-02-06T11:32:28.636Z,-1.06
2023-02-06T11:35:06.688Z,-1.08
2023-02-06T11:37:42.898Z,-1.07
2023-02-06T11:40:26.274Z,-1.00
2023-02-06T11:43:28.792Z,-0.94
2023-02-06T11:46:17.917Z,-0.91
2023-02-06T11:49:04.601Z,-0.92
2023-02-06T11:51:51.920Z,-0.92
2023-02-06T11:54:29.971Z,-0.89
2023-02-06T11:57:20.207Z,-0.89
2023-02-06T12:00:06.966Z,-0.92
2023-02-06T12:02:42.920Z,-0.97
2023-02-06T12:05:19.689Z,-1.00
2023-02-06T12:07:57.878Z,-1.03
2023-02-06T12:10:35.521Z,-1.03
2023-02-06T12:13:18.814Z,-1.05
2023-02-06T12:15:55.039Z,-1.07
2023-02-06T12:18:35.358Z,-1.12
2023-02-06T12:21:27.961Z,-1.14
2023-02-06T12:24:08.584Z,-1.14
2023-02-06T12:26:41.947Z,-1.17
2023-02-06T12:29:27.851Z,-1.24
2023-02-06T12:32:18.761Z,-1.30
2023-02-06T12:35:17.190Z,-1.33
2023-02-06T12:37:55.560Z,-1.30
2023-02-06T12:40:51.304Z,-1.29
2023-02-06T12:43:24.556Z,-1.29
2023-02-06T12:46:11.978Z,-1.28
2023-02-06T12:48:56.028Z,-1.30
2023-02-06T12:51:36.909Z,-1.34
2023-02-06T12:54:20.033Z,-1.40
2023-02-06T12:57:14.971Z,-1.44
2023-02-06T13:00:38.433Z,-1.47
2023-02-06T13:03:32.727Z,-1.55
2023-02-06T13:06:24.219Z,-1.62
2023-02-06T13:09:06.221Z,-1.65
2023-02-06T13:11:42.824Z,-1.68
2023-02-06T13:14:28.424Z,-1.73
2023-02-06T13:17:11.851Z,-1.76
2023-02-06T13:19:49.515Z,-1.78
2023-02-06T13:22:27.101Z,-1.80
2023-02-06T13:24:59.994Z,-1.80
2023-02-06T13:27:41.055Z,-1.86
2023-02-06T13:30:37.095Z,-1.88
2023-02-06T13:33:24.499Z,-1.90
2023-02-06T13:36:10.696Z,-1.97
2023-02-06T13:38:43.970Z,-2.01
2023-02-06T13:41:20.593Z,-2.02
2023-02-06T13:44:05.714Z,-2.01
2023-02-06T13:46:58.239Z,-2.01
2023-02-06T13:50:01.556Z,-1.99
2023-02-06T13:52:54.071Z,-2.02
2023-02-06T13:55:40.956Z,-2.04
2023-02-06T13:58:33.477Z,-2.08
2023-02-06T14:01:13.508Z,-2.11
2023-02-06T14:03:50.333Z,-2.15
2023-02-06T14:06:39.987Z,-2.17
2023-02-06T14:09:44.503Z,-2.17
2023-02-06T14:12:53.984Z,-2.18
2023-02-06T14:15:58.506Z,-2.23
2023-02-06T14:18:54.086Z,-2.26
2023-02-06T14:21:52.419Z,-2.26
2023-02-06T14:24:30.257Z,-2.27
2023-02-06T14:27:31.326Z,-2.29
2023-02-06T14:30:27.148Z,-2.28
2023-02-06T14:33:10.515Z,-2.30
2023-02-06T14:36:02.427Z,-2.38
2023-02-06T14:39:22.242Z,-2.39
2023-02-06T14:41:55.737Z,-2.45
2023-02-06T14:44:31.828Z,-2.49
2023-02-06T14:47:04.862Z,-2.54
2023-02-06T14:49:39.567Z,-2.60
2023-02-06T14:52:20.632Z,-2.66
2023-02-06T14:54:53.826Z,-2.69
2023-02-06T14:57:31.185Z,-2.72
2023-02-06T15:00:20.140Z,-2.76
2023-02-06T15:03:10.440Z,-2.76
2023-02-06T15:05:43.204Z,-2.78
2023-02-06T15:08:21.428Z,-2.80
2023-02-06T15:11:03.979Z,-2.85
2023-02-06T15:13:39.444Z,-2.87
2023-02-06T15:16:12.265Z,-2.87
2023-02-06T15:18:45.737Z,-2.91
2023-02-06T15:21:21.339Z,-2.94
2023-02-06T15:24:13.767Z,-3.01
2023-02-06T15:27:12.397Z,-3.03
2023-02-06T15:29:51.010Z,-3.04
2023-02-06T15:32:38.025Z,-3.03
2023-02-06T15:35:35.918Z,-3.01
2023-02-06T15:38:14.739Z,-3.03
2023-02-06T15:40:51.525Z,-3.05
2023-02-06T15:43:26.683Z,-3.02
2023-02-06T15:46:02.934Z,-3.03
2023-02-06T15:48:52.334Z,-3.06
2023-02-06T15:51:32.266Z,-3.12
2023-02-06T15:54:21.254Z,-3.22
2023-02-06T15:57:19.582Z,-3.30
2023-02-06T15:59:53.604Z,-3.36
2023-02-06T16:02:36.378Z,-3.43
2023-02-06T16:05:10.341Z,-3.46
2023-02-06T16:07:45.948Z,-3.49
2023-02-06T16:10:27.547Z,-3.52
2023-02-06T16:13:03.567Z,-3.55
2023-02-06T16:15:40.935Z,-3.59
2023-02-06T16:18:33.109Z,-3.58
2023-02-06T16:21:25.623Z,-3.56
2023-02-06T16:24:07.277Z,-3.55
2023-02-06T16:26:52.549Z,-3.60
2023-02-06T16:29:29.771Z,-3.64
2023-02-06T16:32:06.649Z,-3.66
2023-02-06T16:34:42.658Z,-3.68
2023-02-06T16:37:19.363Z,-3.67
2023-02-06T16:39:52.820Z,-3.73
2023-02-06T16:42:34.708Z,-3.80
2023-02-06T16:45:27.162Z,-3.83
2023-02-06T16:47:59.774Z,-3.89
2023-02-06T16:50:35.914Z,-3.97
2023-02-06T16:53:18.742Z,-4.04
2023-02-06T16:55:52.339Z,-4.10
2023-02-06T16:58:28.028Z,-4.18
2023-02-06T17:01:01.706Z,-4.24
2023-02-06T17:03:37.989Z,-4.30
2023-02-06T17:06:15.414Z,-4.34
2023-02-06T17:08:48.302Z,-4.38
2023-02-06T17:11:22.159Z,-4.41
2023-02-06T17:13:54.908Z,-4.45
2023-02-06T17:16:29.600Z,-4.49
2023-02-06T17:19:02.491Z,-4.51
2023-02-06T17:21:35.548Z,-4.54
2023-02-06T17:24:08.808Z,-4.55
2023-02-06T17:26:42.373Z,-4.57
2023-02-06T17:29:16.419Z,-4.61
2023-02-06T17:31:49.365Z,-4.68
2023-02-06T17:34:23.629Z,-4.73
2023-02-06T17:36:57.052Z,-4.80
2023-02-06T17:39:30.386Z,-4.87
2023-02-06T17:42:03.422Z,-4.93
2023-02-06T17:44:36.788Z,-4.98
2023-02-06T17:47:10.055Z,-5.01
2023-02-06T17:49:42.874Z,-5.05
2023-02-06T17:52:16.322Z,-5.13
2023-02-06T17:54:49.089Z,-5.19
2023-02-06T17:57:22.397Z,-5.24
2023-02-06T17:59:55.834Z,-5.31
2023-02-06T18:02:28.729Z,-5.35
2023-02-06T18:05:01.772Z,-5.39
2023-02-06T18:07:35.592Z,-5.46
2023-02-06T18:10:10.113Z,-5.49
2023-02-06T18:12:43.573Z,-5.55
2023-02-06T18:15:17.908Z,-5.60
2023-02-06T18:17:51.842Z,-5.66
2023-02-06T18:20:25.163Z,-5.71
2023-02-06T18:22:58.667Z,-5.75
2023-02-06T18:25:31.484Z,-5.83
2023-02-06T18:28:04.892Z,-5.86
2023-02-06T18:30:38.274Z,-5.89
2023-02-06T18:33:13.058Z,-5.92
2023-02-06T18:35:46.946Z,-5.96
2023-02-06T18:38:20.106Z,-6.00
2023-02-06T18:40:53.674Z,-6.05
2023-02-06T18:43:27.835Z,-6.06
2023-02-06T18:46:02.267Z,-6.10
2023-02-06T18:48:36.607Z,-6.15
2023-02-06T18:51:08.890Z,-6.18
2023-02-06T18:53:41.897Z,-6.22
2023-02-06T18:56:14.828Z,-6.25
2023-02-06T18:58:48.012Z,-6.26
2023-02-06T19:01:24.384Z,-6.28
2023-02-06T19:03:58.644Z,-6.33
2023-02-06T19:06:35.365Z,-6.35
2023-02-06T19:09:09.462Z,-6.39
2023-02-06T19:11:43.893Z,-6.42
2023-02-06T19:14:20.699Z,-6.45
2023-02-06T19:16:55.248Z,-6.45
2023-02-06T19:19:28.187Z,-6.46
2023-02-06T19:22:01.468Z,-6.47
2023-02-06T19:24:34.650Z,-6.48
2023-02-06T19:27:07.285Z,-6.48
2023-02-06T19:29:41.042Z,-6.51
2023-02-06T19:32:14.687Z,-6.55
2023-02-06T19:34:47.895Z,-6.58
2023-02-06T19:37:22.444Z,-6.61
2023-02-06T19:39:57.366Z,-6.63
2023-02-06T19:42:30.355Z,-6.64
2023-02-06T19:45:05.388Z,-6.65
2023-02-06T19:47:39.821Z,-6.66
2023-02-06T19:50:14.373Z,-6.66
2023-02-06T19:52:48.310Z,-6.69
2023-02-06T19:55:22.576Z,-6.68
2023-02-06T19:57:56.924Z,-6.68
2023-02-06T20:00:31.315Z,-6.63
2023-02-06T20:03:05.761Z,-6.58
2023-02-06T20:05:40.588Z,-6.52
2023-02-06T20:08:16.007Z,-6.48
2023-02-06T20:10:50.557Z,-6.47
2023-02-06T20:13:25.010Z,-6.48
2023-02-06T20:16:00.788Z,-6.49
2023-02-06T20:18:37.287Z,-6.47
2023-02-06T20:21:28.057Z,-6.45
2023-02-06T20:24:06.944Z,-6.48
2023-02-06T20:26:43.376Z,-6.51
2023-02-06T20:29:27.707Z,-6.48
2023-02-06T20:32:02.251Z,-6.45
2023-02-06T20:34:37.263Z,-6.42
2023-02-06T20:37:11.092Z,-6.39
2023-02-06T20:39:44.370Z,-6.39
2023-02-06T20:42:19.601Z,-6.37
2023-02-06T20:44:53.723Z,-6.39
2023-02-06T20:47:27.616Z,-6.39
2023-02-06T20:50:02.033Z,-6.41
2023-02-06T20:52:36.948Z,-6.44
2023-02-06T20:55:11.052Z,-6.46
2023-02-06T20:57:45.262Z,-6.46
2023-02-06T21:00:20.805Z,-6.48
2023-02-06T21:02:54.909Z,-6.50
2023-02-06T21:05:28.264Z,-6.48
2023-02-06T21:08:01.946Z,-6.46
2023-02-06T21:10:36.763Z,-6.45
2023-02-06T21:13:10.715Z,-6.46
2023-02-06T21:15:46.802Z,-6.49
2023-02-06T21:18:22.509Z,-6.51
2023-02-06T21:20:58.291Z,-6.55
2023-02-06T21:23:32.051Z,-6.61
2023-02-06T21:26:07.168Z,-6.66
2023-02-06T21:28:42.106Z,-6.71
2023-02-06T21:31:27.686Z,-6.77
2023-02-06T21:34:06.202Z,-6.80
2023-02-06T21:36:42.201Z,-6.83
2023-02-06T21:39:22.626Z,-6.84
2023-02-06T21:41:57.421Z,-6.86
2023-02-06T21:44:32.001Z,-6.88
2023-02-06T21:47:06.284Z,-6.94
2023-02-06T21:49:40.426Z,-7.01
2023-02-06T21:52:14.488Z,-7.07
2023-02-06T21:54:47.605Z,-7.13
2023-02-06T21:57:22.000Z,-7.17
2023-02-06T21:59:57.286Z,-7.25
2023-02-06T22:02:31.696Z,-7.32
2023-02-06T22:05:06.448Z,-7.37
2023-02-06T22:07:40.891Z,-7.44
2023-02-06T22:10:15.484Z,-7.48
2023-02-06T22:12:53.176Z,-7.52
2023-02-06T22:15:27.207Z,-7.55
2023-02-06T22:18:02.016Z,-7.58
2023-02-06T22:20:36.309Z,-7.61
2023-02-06T22:23:09.169Z,-7.64
2023-02-06T22:25:48.874Z,-7.66
2023-02-06T22:28:23.046Z,-7.67
2023-02-06T22:30:56.850Z,-7.68
2023-02-06T22:33:30.709Z,-7.70
2023-02-06T22:36:15.206Z,-7.71
2023-02-06T22:38:51.691Z,-7.73
2023-02-06T22:41:25.549Z,-7.72
2023-02-06T22:43:59.777Z,-7.71
2023-02-06T22:46:38.925Z,-7.70
2023-02-06T22:49:13.822Z,-7.70
2023-02-06T22:51:48.486Z,-7.70
2023-02-06T22:54:22.518Z,-7.71
2023-02-06T22:56:57.568Z,-7.71
2023-02-06T22:59:31.527Z,-7.72
2023-02-06T23:02:05.493Z,-7.72
2023-02-06T23:04:40.983Z,-7.73
2023-02-06T23:07:15.446Z,-7.73
2023-02-06T23:09:49.754Z,-7.72
2023-02-06T23:12:23.601Z,-7.73
2023-02-06T23:14:58.349Z,-7.73
2023-02-06T23:17:32.139Z,-7.72
2023-02-06T23:20:07.110Z,-7.74
2023-02-06T23:22:41.014Z,-7.76
2023-02-06T23:25:15.033Z,-7.79
2023-02-06T23:27:49.737Z,-7.80
2023-02-06T23:30:24.150Z,-7.82
2023-02-06T23:32:58.666Z,-7.80
2023-02-06T23:35:34.358Z,-7.82
2023-02-06T23:38:09.147Z,-7.79
2023-02-06T23:40:43.176Z,-7.79
2023-02-06T23:43:17.293Z,-7.76
2023-02-06T23:45:51.399Z,-7.75
2023-02-06T23:48:25.431Z,-7.72
2023-02-06T23:50:59.910Z,-7.68
2023-02-06T23:53:34.416Z,-7.66
2023-02-06T23:56:29.309Z,-7.59
2023-02-06T23:59:04.997Z,-7.53
